Kezdőlap
METAR-TAF:

METAR-TAF

Repülőterek :

Forest City, Iowa, Amerikai Egyesült Államok

földrajzi szélesség: 43-14-05N, földrajzi hosszúság: 093-37-27W, magasság: 375 m

Jelenlegi meteorológiai megfigyelések

A jelentés 17 perccel ezelõtt készült, 03:15 UTC
Szélcsend
Hőmérséklet -5°C
Páratartalom 93%
Légköri nyomás 1019 hPa
Látótávolság: 6.4 km
Szórványos felhőzet 2000 lábon
Szórványos felhőzet 2500 lábon
Szakadozott felhőzet 3600 lábon
enyhe havazás

METAR: KFXY 280315Z AUTO 00000KT 4SM -SN SCT020 SCT025 BKN036 M05/M06 A3009 RMK AO2

Idő: 21:32 (03:32 UTC)


TAF: hiányzik

Meteorológiai megfigyelések és előrejelzések több, mint 4000 repülőtéren (METAR és TAF jelentéseket).

A térképen piros és sárga pontok jelzik az elérhető meteorológiai állomásokat.

Mozgassa az egeret a pont fölött, hogy megjelenjen az állomás neve.

Azután kattintson az időjárási megfigyelések és előrejelzések megtekintéséhez.

A térkép megváltoztatása: kattintson a fekete keresztel jelölt zöld gombra ráközelítéshez, a vonallal jelölt zöld gombra távolításhoz, vagy a zöld nyilakra a szomszédos térképek eléréséhez.


METAR-TAF: